CAL163 RKSI-RCTP
Flight info
| Callsign | CAL163 |
|---|---|
| Flight time | 2h 10m |
| Altitude | 38000 |
| Route | BOPTA3H BOPTA Z51 BEDES Y711 MUGUS Y742 SALMI B576 BAKER BAKER1A |
| Aircraft | B738/M-ABDE3FGJ3J4LOP1RVWY/LB2 |
Departure
| Time | 2026-05-06 12:22 |
|---|---|
| Airport | Incheon International Airport (RKSI) |
Arrival
| Time | 2026-05-06 14:32 |
|---|---|
| Airport | Taiwan Taoyuan International Airport (RCTP) |
| Time | Latitude | Longitude | Altitude | Speed | Heading |
|---|---|---|---|---|---|
| 2026-05-06 11:33 | 37.46523 | 126.43341 | 29 ft | 0 kts | 292° |
| 2026-05-06 12:08 | 37.46521 | 126.43346 | 29 ft | 2 kts | 292° |
| 2026-05-06 12:08 | 37.46515 | 126.43365 | 29 ft | 2 kts | 292° |
| 2026-05-06 12:08 | 37.46510 | 126.43382 | 28 ft | 2 kts | 292° |
| 2026-05-06 12:08 | 37.46504 | 126.43399 | 29 ft | 2 kts | 292° |
| 2026-05-06 12:09 | 37.46498 | 126.43417 | 29 ft | 2 kts | 290° |
| 2026-05-06 12:09 | 37.46495 | 126.43436 | 28 ft | 2 kts | 272° |
| 2026-05-06 12:09 | 37.46495 | 126.43454 | 28 ft | 2 kts | 259° |
| 2026-05-06 12:09 | 37.46500 | 126.43472 | 28 ft | 2 kts | 246° |
| 2026-05-06 12:10 | 37.46507 | 126.43488 | 28 ft | 2 kts | 233° |
| 2026-05-06 12:10 | 37.46516 | 126.43504 | 28 ft | 2 kts | 237° |
| 2026-05-06 12:10 | 37.46522 | 126.43516 | 28 ft | 0 kts | 236° |
| 2026-05-06 12:10 | 37.46522 | 126.43517 | 28 ft | 0 kts | 236° |
| 2026-05-06 12:12 | 37.46521 | 126.43514 | 28 ft | 1 kts | 236° |
| 2026-05-06 12:12 | 37.46514 | 126.43501 | 28 ft | 2 kts | 236° |
| 2026-05-06 12:12 | 37.46505 | 126.43484 | 28 ft | 2 kts | 236° |
| 2026-05-06 12:13 | 37.46490 | 126.43464 | 28 ft | 3 kts | 214° |
| 2026-05-06 12:13 | 37.46463 | 126.43457 | 28 ft | 5 kts | 173° |
| 2026-05-06 12:13 | 37.46418 | 126.43488 | 28 ft | 9 kts | 145° |
| 2026-05-06 12:13 | 37.46356 | 126.43542 | 28 ft | 12 kts | 145° |
| 2026-05-06 12:14 | 37.46279 | 126.43609 | 28 ft | 13 kts | 144° |
| 2026-05-06 12:14 | 37.46212 | 126.43665 | 28 ft | 8 kts | 161° |
| 2026-05-06 12:14 | 37.46170 | 126.43635 | 28 ft | 7 kts | 237° |
| 2026-05-06 12:14 | 37.46144 | 126.43585 | 28 ft | 6 kts | 234° |
| 2026-05-06 12:15 | 37.46120 | 126.43542 | 28 ft | 5 kts | 235° |
| 2026-05-06 12:15 | 37.46093 | 126.43494 | 28 ft | 8 kts | 234° |
| 2026-05-06 12:15 | 37.46056 | 126.43427 | 28 ft | 10 kts | 234° |
| 2026-05-06 12:15 | 37.46012 | 126.43353 | 28 ft | 10 kts | 234° |
| 2026-05-06 12:16 | 37.45974 | 126.43284 | 28 ft | 9 kts | 235° |
| 2026-05-06 12:16 | 37.45937 | 126.43213 | 28 ft | 9 kts | 245° |
| 2026-05-06 12:16 | 37.45954 | 126.43152 | 28 ft | 7 kts | 324° |
| 2026-05-06 12:16 | 37.46003 | 126.43108 | 28 ft | 9 kts | 324° |
| 2026-05-06 12:17 | 37.46061 | 126.43057 | 28 ft | 12 kts | 324° |
| 2026-05-06 12:17 | 37.46141 | 126.42985 | 28 ft | 16 kts | 324° |
| 2026-05-06 12:17 | 37.46248 | 126.42889 | 28 ft | 20 kts | 324° |
| 2026-05-06 12:17 | 37.46374 | 126.42776 | 28 ft | 23 kts | 324° |
| 2026-05-06 12:18 | 37.46514 | 126.42652 | 28 ft | 25 kts | 324° |
| 2026-05-06 12:18 | 37.46660 | 126.42521 | 28 ft | 26 kts | 324° |
| 2026-05-06 12:18 | 37.46806 | 126.42391 | 28 ft | 24 kts | 324° |
| 2026-05-06 12:18 | 37.46944 | 126.42268 | 28 ft | 23 kts | 324° |
| 2026-05-06 12:19 | 37.47077 | 126.42149 | 28 ft | 23 kts | 323° |
| 2026-05-06 12:19 | 37.47206 | 126.42034 | 28 ft | 22 kts | 323° |
| 2026-05-06 12:19 | 37.47328 | 126.41926 | 28 ft | 21 kts | 324° |
| 2026-05-06 12:19 | 37.47406 | 126.41846 | 28 ft | 9 kts | 297° |
| 2026-05-06 12:20 | 37.47389 | 126.41779 | 28 ft | 8 kts | 235° |
| 2026-05-06 12:20 | 37.47358 | 126.41724 | 28 ft | 7 kts | 235° |
| 2026-05-06 12:20 | 37.47332 | 126.41676 | 28 ft | 6 kts | 235° |
| 2026-05-06 12:20 | 37.47308 | 126.41633 | 28 ft | 5 kts | 235° |
| 2026-05-06 12:21 | 37.47288 | 126.41597 | 28 ft | 4 kts | 234° |
| 2026-05-06 12:21 | 37.47268 | 126.41571 | 28 ft | 3 kts | 191° |
| 2026-05-06 12:21 | 37.47242 | 126.41590 | 28 ft | 9 kts | 145° |
| 2026-05-06 12:21 | 37.47069 | 126.41744 | 28 ft | 63 kts | 145° |
| 2026-05-06 12:22 | 37.46526 | 126.42229 | 29 ft | 124 kts | 144° |
| 2026-05-06 12:22 | 37.45676 | 126.42989 | 59 ft | 170 kts | 145° |
| 2026-05-06 12:22 | 37.44697 | 126.43833 | 648 ft | 172 kts | 150° |
| 2026-05-06 12:22 | 37.43666 | 126.44614 | 1289 ft | 177 kts | 154° |
| 2026-05-06 12:23 | 37.42593 | 126.45384 | 1827 ft | 184 kts | 155° |
| 2026-05-06 12:23 | 37.41422 | 126.46252 | 2167 ft | 204 kts | 153° |
| 2026-05-06 12:23 | 37.40170 | 126.47199 | 2593 ft | 220 kts | 153° |
| 2026-05-06 12:23 | 37.38790 | 126.48228 | 2986 ft | 238 kts | 156° |
| 2026-05-06 12:24 | 37.37217 | 126.49033 | 3501 ft | 248 kts | 167° |
| 2026-05-06 12:24 | 37.35527 | 126.49598 | 4011 ft | 260 kts | 169° |
| 2026-05-06 12:24 | 37.33755 | 126.50144 | 4770 ft | 261 kts | 169° |
| 2026-05-06 12:24 | 37.32029 | 126.50655 | 5581 ft | 260 kts | 169° |
| 2026-05-06 12:25 | 37.30196 | 126.51215 | 5987 ft | 276 kts | 167° |
| 2026-05-06 12:25 | 37.28393 | 126.51891 | 6891 ft | 273 kts | 163° |
| 2026-05-06 12:25 | 37.26625 | 126.52846 | 7470 ft | 285 kts | 155° |
| 2026-05-06 12:25 | 37.24870 | 126.54057 | 8204 ft | 289 kts | 153° |
| 2026-05-06 12:26 | 37.23130 | 126.55318 | 8972 ft | 292 kts | 153° |
| 2026-05-06 12:26 | 37.21349 | 126.56567 | 9549 ft | 301 kts | 154° |
| 2026-05-06 12:26 | 37.19493 | 126.57858 | 10148 ft | 309 kts | 154° |
| 2026-05-06 12:26 | 37.17623 | 126.59146 | 10877 ft | 312 kts | 155° |
| 2026-05-06 12:27 | 37.15647 | 126.60468 | 11293 ft | 328 kts | 155° |
| 2026-05-06 12:27 | 37.13548 | 126.61770 | 11659 ft | 342 kts | 162° |
| 2026-05-06 12:27 | 37.11222 | 126.62560 | 12020 ft | 352 kts | 176° |
| 2026-05-06 12:27 | 37.08762 | 126.62639 | 12462 ft | 359 kts | 187° |
| 2026-05-06 12:28 | 37.06291 | 126.62418 | 13290 ft | 358 kts | 187° |
| 2026-05-06 12:28 | 37.03783 | 126.62296 | 13952 ft | 365 kts | 185° |
| 2026-05-06 12:28 | 37.01207 | 126.62262 | 14586 ft | 371 kts | 184° |
| 2026-05-06 12:28 | 36.98658 | 126.62270 | 15535 ft | 367 kts | 184° |
| 2026-05-06 12:29 | 36.96110 | 126.62293 | 16060 ft | 376 kts | 183° |
| 2026-05-06 12:29 | 36.93485 | 126.62357 | 16797 ft | 379 kts | 183° |
| 2026-05-06 12:29 | 36.90827 | 126.62452 | 17446 ft | 383 kts | 182° |
| 2026-05-06 12:29 | 36.88160 | 126.62517 | 18151 ft | 384 kts | 184° |
| 2026-05-06 12:30 | 36.85468 | 126.62456 | 18774 ft | 387 kts | 186° |
| 2026-05-06 12:30 | 36.82785 | 126.62303 | 19316 ft | 392 kts | 187° |
| 2026-05-06 12:30 | 36.80041 | 126.62142 | 19982 ft | 394 kts | 187° |
| 2026-05-06 12:30 | 36.77311 | 126.61972 | 20557 ft | 398 kts | 187° |
| 2026-05-06 12:31 | 36.74520 | 126.61877 | 21024 ft | 407 kts | 183° |
| 2026-05-06 12:31 | 36.71658 | 126.62208 | 21560 ft | 416 kts | 175° |
| 2026-05-06 12:31 | 36.68836 | 126.62949 | 22213 ft | 419 kts | 171° |
| 2026-05-06 12:31 | 36.65976 | 126.63899 | 22582 ft | 428 kts | 168° |
| 2026-05-06 12:32 | 36.63092 | 126.64928 | 23103 ft | 431 kts | 168° |
| 2026-05-06 12:32 | 36.60248 | 126.65984 | 23837 ft | 428 kts | 168° |
| 2026-05-06 12:32 | 36.57335 | 126.67046 | 24006 ft | 440 kts | 169° |
| 2026-05-06 12:32 | 36.54436 | 126.68055 | 24726 ft | 436 kts | 169° |
| 2026-05-06 12:33 | 36.51500 | 126.69048 | 25216 ft | 439 kts | 170° |
| 2026-05-06 12:33 | 36.48524 | 126.70036 | 25627 ft | 444 kts | 170° |
| 2026-05-06 12:33 | 36.45515 | 126.71030 | 26141 ft | 446 kts | 171° |
| 2026-05-06 12:33 | 36.42540 | 126.72011 | 26557 ft | 450 kts | 170° |
| 2026-05-06 12:34 | 36.39508 | 126.73012 | 27026 ft | 452 kts | 170° |
| 2026-05-06 12:34 | 36.36455 | 126.74024 | 27426 ft | 456 kts | 171° |
| 2026-05-06 12:34 | 36.33394 | 126.75048 | 27877 ft | 458 kts | 170° |
| 2026-05-06 12:34 | 36.30286 | 126.76093 | 28287 ft | 462 kts | 170° |
| 2026-05-06 12:35 | 36.27219 | 126.77125 | 28705 ft | 464 kts | 170° |
| 2026-05-06 12:35 | 36.24073 | 126.78185 | 29072 ft | 468 kts | 170° |
| 2026-05-06 12:35 | 36.20942 | 126.79241 | 29782 ft | 463 kts | 171° |
| 2026-05-06 12:35 | 36.17853 | 126.80200 | 30459 ft | 457 kts | 173° |
| 2026-05-06 12:36 | 36.14717 | 126.80897 | 30795 ft | 456 kts | 179° |
| 2026-05-06 12:36 | 36.11564 | 126.81171 | 31228 ft | 452 kts | 185° |
| 2026-05-06 12:36 | 36.08474 | 126.81055 | 31707 ft | 447 kts | 189° |
| 2026-05-06 12:36 | 36.05386 | 126.80716 | 32081 ft | 448 kts | 192° |
| 2026-05-06 12:37 | 36.02247 | 126.80279 | 32460 ft | 449 kts | 192° |
| 2026-05-06 12:37 | 35.99184 | 126.79836 | 32899 ft | 448 kts | 192° |
| 2026-05-06 12:37 | 35.96096 | 126.79405 | 33507 ft | 444 kts | 192° |
| 2026-05-06 12:37 | 35.93000 | 126.78994 | 33953 ft | 445 kts | 192° |
| 2026-05-06 12:38 | 35.89932 | 126.78605 | 34283 ft | 447 kts | 192° |
| 2026-05-06 12:38 | 35.86819 | 126.78226 | 34640 ft | 449 kts | 192° |
| 2026-05-06 12:38 | 35.83747 | 126.77868 | 35112 ft | 447 kts | 192° |
| 2026-05-06 12:38 | 35.80628 | 126.77515 | 35614 ft | 445 kts | 192° |
| 2026-05-06 12:39 | 35.77581 | 126.77177 | 36047 ft | 444 kts | 192° |
| 2026-05-06 12:39 | 35.74504 | 126.76839 | 36379 ft | 444 kts | 192° |
| 2026-05-06 12:39 | 35.71402 | 126.76498 | 36551 ft | 448 kts | 192° |
| 2026-05-06 12:39 | 35.68321 | 126.76162 | 36922 ft | 447 kts | 192° |
| 2026-05-06 12:40 | 35.65228 | 126.75827 | 37246 ft | 447 kts | 192° |
| 2026-05-06 12:40 | 35.62119 | 126.75491 | 37575 ft | 447 kts | 192° |
| 2026-05-06 12:40 | 35.59013 | 126.75155 | 37760 ft | 449 kts | 192° |
| 2026-05-06 12:40 | 35.55911 | 126.74820 | 38036 ft | 449 kts | 192° |
| 2026-05-06 12:41 | 35.49662 | 126.74147 | 38038 ft | 450 kts | 192° |
| 2026-05-06 12:41 | 35.43417 | 126.73480 | 38047 ft | 450 kts | 192° |
| 2026-05-06 12:42 | 35.37172 | 126.72812 | 38040 ft | 451 kts | 192° |
| 2026-05-06 12:42 | 35.30960 | 126.72151 | 38038 ft | 450 kts | 192° |
| 2026-05-06 12:43 | 35.24690 | 126.71478 | 38044 ft | 452 kts | 192° |
| 2026-05-06 12:43 | 35.18432 | 126.70815 | 38036 ft | 449 kts | 192° |
| 2026-05-06 12:44 | 35.12196 | 126.70150 | 38044 ft | 452 kts | 192° |
| 2026-05-06 12:44 | 35.05920 | 126.69481 | 38041 ft | 451 kts | 192° |
| 2026-05-06 12:45 | 34.99647 | 126.68818 | 38041 ft | 455 kts | 192° |
| 2026-05-06 12:46 | 34.90238 | 126.67825 | 38043 ft | 451 kts | 192° |
| 2026-05-06 12:46 | 34.83964 | 126.67162 | 38039 ft | 453 kts | 192° |
| 2026-05-06 12:47 | 34.77667 | 126.66495 | 38044 ft | 456 kts | 192° |
| 2026-05-06 12:47 | 34.71381 | 126.65834 | 38044 ft | 454 kts | 191° |
| 2026-05-06 12:48 | 34.65057 | 126.65170 | 38041 ft | 453 kts | 191° |
| 2026-05-06 12:48 | 34.58802 | 126.64516 | 38044 ft | 454 kts | 191° |
| 2026-05-06 12:49 | 34.52481 | 126.63849 | 38042 ft | 455 kts | 191° |
| 2026-05-06 12:49 | 34.46166 | 126.63184 | 38041 ft | 455 kts | 191° |
| 2026-05-06 12:50 | 34.39882 | 126.62530 | 38044 ft | 456 kts | 191° |
| 2026-05-06 12:50 | 34.33586 | 126.61877 | 38047 ft | 452 kts | 191° |
| 2026-05-06 12:51 | 34.27290 | 126.61224 | 38044 ft | 456 kts | 191° |
| 2026-05-06 12:51 | 34.20947 | 126.60560 | 38046 ft | 456 kts | 191° |
| 2026-05-06 12:52 | 34.14646 | 126.59902 | 38048 ft | 456 kts | 190° |
| 2026-05-06 12:52 | 34.08300 | 126.59240 | 38045 ft | 456 kts | 191° |
| 2026-05-06 12:53 | 34.01965 | 126.58579 | 38050 ft | 456 kts | 190° |
| 2026-05-06 12:53 | 33.95662 | 126.57928 | 38048 ft | 455 kts | 190° |
| 2026-05-06 12:54 | 33.89299 | 126.57269 | 38051 ft | 459 kts | 191° |
| 2026-05-06 12:54 | 33.83055 | 126.56156 | 38048 ft | 450 kts | 199° |
| 2026-05-06 12:55 | 33.77095 | 126.53956 | 38051 ft | 446 kts | 205° |
| 2026-05-06 12:55 | 33.71275 | 126.51377 | 38049 ft | 447 kts | 206° |
| 2026-05-06 12:56 | 33.65474 | 126.48766 | 38049 ft | 445 kts | 206° |
| 2026-05-06 12:56 | 33.59638 | 126.46181 | 38048 ft | 447 kts | 206° |
| 2026-05-06 12:57 | 33.53773 | 126.43619 | 38049 ft | 448 kts | 205° |
| 2026-05-06 12:57 | 33.47927 | 126.41083 | 38048 ft | 448 kts | 205° |
| 2026-05-06 12:58 | 33.42028 | 126.38536 | 38046 ft | 450 kts | 205° |
| 2026-05-06 12:58 | 33.36178 | 126.36028 | 38045 ft | 448 kts | 205° |
| 2026-05-06 12:59 | 33.30312 | 126.33511 | 38049 ft | 449 kts | 204° |
| 2026-05-06 12:59 | 33.24443 | 126.30993 | 38044 ft | 448 kts | 204° |
| 2026-05-06 13:00 | 33.18573 | 126.28479 | 38051 ft | 450 kts | 204° |
| 2026-05-06 13:00 | 33.12668 | 126.25957 | 38045 ft | 448 kts | 204° |
| 2026-05-06 13:01 | 33.06773 | 126.23440 | 38044 ft | 450 kts | 204° |
| 2026-05-06 13:01 | 33.00899 | 126.20934 | 38050 ft | 449 kts | 204° |
| 2026-05-06 13:02 | 32.95045 | 126.18431 | 38046 ft | 448 kts | 204° |
| 2026-05-06 13:02 | 32.89159 | 126.15904 | 38047 ft | 450 kts | 204° |
| 2026-05-06 13:03 | 32.83250 | 126.13368 | 38048 ft | 450 kts | 204° |
| 2026-05-06 13:03 | 32.77353 | 126.10840 | 38049 ft | 449 kts | 204° |
| 2026-05-06 13:04 | 32.71449 | 126.08315 | 38046 ft | 448 kts | 204° |
| 2026-05-06 13:04 | 32.65602 | 126.05821 | 38043 ft | 449 kts | 204° |
| 2026-05-06 13:05 | 32.59700 | 126.03306 | 38040 ft | 448 kts | 204° |
| 2026-05-06 13:05 | 32.53830 | 126.00808 | 38037 ft | 449 kts | 204° |
| 2026-05-06 13:06 | 32.47965 | 125.98315 | 38030 ft | 448 kts | 204° |
| 2026-05-06 13:06 | 32.42067 | 125.95815 | 38028 ft | 448 kts | 204° |
| 2026-05-06 13:07 | 32.36185 | 125.93325 | 38028 ft | 449 kts | 204° |
| 2026-05-06 13:07 | 32.30326 | 125.90850 | 38031 ft | 449 kts | 204° |
| 2026-05-06 13:08 | 32.24445 | 125.88369 | 38032 ft | 448 kts | 204° |
| 2026-05-06 13:08 | 32.18569 | 125.85890 | 38028 ft | 448 kts | 204° |
| 2026-05-06 13:09 | 32.12696 | 125.83418 | 38028 ft | 447 kts | 204° |
| 2026-05-06 13:09 | 32.06821 | 125.80949 | 38030 ft | 449 kts | 204° |
| 2026-05-06 13:10 | 32.00933 | 125.78477 | 38029 ft | 447 kts | 204° |
| 2026-05-06 13:10 | 31.95065 | 125.76012 | 38028 ft | 448 kts | 204° |
| 2026-05-06 13:11 | 31.89178 | 125.73535 | 38027 ft | 449 kts | 204° |
| 2026-05-06 13:11 | 31.83313 | 125.71074 | 38026 ft | 448 kts | 203° |
| 2026-05-06 13:12 | 31.77398 | 125.68596 | 38027 ft | 449 kts | 204° |
| 2026-05-06 13:12 | 31.71523 | 125.66140 | 38026 ft | 448 kts | 204° |
| 2026-05-06 13:13 | 31.65651 | 125.63685 | 38027 ft | 448 kts | 204° |
| 2026-05-06 13:13 | 31.59787 | 125.61231 | 38028 ft | 449 kts | 203° |
| 2026-05-06 13:14 | 31.53878 | 125.58759 | 38032 ft | 449 kts | 204° |
| 2026-05-06 13:14 | 31.48010 | 125.56305 | 38025 ft | 449 kts | 204° |
| 2026-05-06 13:15 | 31.42116 | 125.53835 | 38030 ft | 450 kts | 203° |
| 2026-05-06 13:15 | 31.36217 | 125.51366 | 38027 ft | 449 kts | 204° |
| 2026-05-06 13:16 | 31.30308 | 125.48897 | 38028 ft | 449 kts | 204° |
| 2026-05-06 13:16 | 31.24456 | 125.46455 | 38031 ft | 450 kts | 204° |
| 2026-05-06 13:17 | 31.18532 | 125.43987 | 38026 ft | 450 kts | 204° |
| 2026-05-06 13:17 | 31.12629 | 125.41534 | 38027 ft | 448 kts | 204° |
| 2026-05-06 13:18 | 31.06727 | 125.39082 | 38029 ft | 451 kts | 204° |
| 2026-05-06 13:18 | 31.00866 | 125.36652 | 38028 ft | 448 kts | 203° |
| 2026-05-06 13:19 | 30.94947 | 125.34199 | 38032 ft | 449 kts | 203° |
| 2026-05-06 13:19 | 30.89063 | 125.31764 | 38031 ft | 449 kts | 203° |
| 2026-05-06 13:20 | 30.83158 | 125.29324 | 38028 ft | 450 kts | 203° |
| 2026-05-06 13:20 | 30.77279 | 125.26901 | 38024 ft | 449 kts | 203° |
| 2026-05-06 13:21 | 30.71383 | 125.24470 | 38026 ft | 448 kts | 203° |
| 2026-05-06 13:21 | 30.65503 | 125.22051 | 38030 ft | 448 kts | 203° |
| 2026-05-06 13:22 | 30.59615 | 125.19631 | 38028 ft | 449 kts | 203° |
| 2026-05-06 13:22 | 30.53737 | 125.17218 | 38026 ft | 449 kts | 204° |
| 2026-05-06 13:23 | 30.47830 | 125.14796 | 38026 ft | 450 kts | 204° |
| 2026-05-06 13:23 | 30.41936 | 125.12382 | 38029 ft | 448 kts | 204° |
| 2026-05-06 13:24 | 30.36068 | 125.09983 | 38030 ft | 448 kts | 204° |
| 2026-05-06 13:24 | 30.30176 | 125.07574 | 38025 ft | 447 kts | 204° |
| 2026-05-06 13:25 | 30.24296 | 125.05173 | 38028 ft | 448 kts | 204° |
| 2026-05-06 13:25 | 30.18420 | 125.02778 | 38027 ft | 449 kts | 204° |
| 2026-05-06 13:26 | 30.12529 | 125.00380 | 38032 ft | 448 kts | 204° |
| 2026-05-06 13:26 | 30.06640 | 124.97986 | 38028 ft | 448 kts | 204° |
| 2026-05-06 13:27 | 30.00761 | 124.95599 | 38028 ft | 448 kts | 204° |
| 2026-05-06 13:27 | 29.94929 | 124.93175 | 38029 ft | 447 kts | 205° |
| 2026-05-06 13:28 | 29.89054 | 124.90654 | 38028 ft | 448 kts | 205° |
| 2026-05-06 13:28 | 29.83264 | 124.88163 | 38026 ft | 446 kts | 205° |
| 2026-05-06 13:29 | 29.77415 | 124.85658 | 38025 ft | 445 kts | 205° |
| 2026-05-06 13:29 | 29.71589 | 124.83173 | 38026 ft | 447 kts | 205° |
| 2026-05-06 13:30 | 29.65767 | 124.80695 | 38020 ft | 446 kts | 205° |
| 2026-05-06 13:30 | 29.59928 | 124.78216 | 38021 ft | 447 kts | 205° |
| 2026-05-06 13:31 | 29.54097 | 124.75743 | 38025 ft | 448 kts | 205° |
| 2026-05-06 13:31 | 29.48241 | 124.73265 | 38019 ft | 448 kts | 205° |
| 2026-05-06 13:32 | 29.42407 | 124.70802 | 38022 ft | 447 kts | 205° |
| 2026-05-06 13:32 | 29.36553 | 124.68330 | 38020 ft | 448 kts | 205° |
| 2026-05-06 13:33 | 29.30679 | 124.65852 | 38015 ft | 446 kts | 205° |
| 2026-05-06 13:33 | 29.24855 | 124.63397 | 38017 ft | 447 kts | 205° |
| 2026-05-06 13:34 | 29.19002 | 124.60931 | 38015 ft | 447 kts | 205° |
| 2026-05-06 13:34 | 29.13184 | 124.58486 | 38014 ft | 447 kts | 206° |
| 2026-05-06 13:35 | 29.07334 | 124.56031 | 38015 ft | 447 kts | 206° |
| 2026-05-06 13:35 | 29.01486 | 124.53579 | 38018 ft | 447 kts | 206° |
| 2026-05-06 13:36 | 28.95746 | 124.50914 | 38016 ft | 442 kts | 212° |
| 2026-05-06 13:36 | 28.90492 | 124.47347 | 38017 ft | 436 kts | 220° |
| 2026-05-06 13:37 | 28.85556 | 124.43392 | 38014 ft | 434 kts | 221° |
| 2026-05-06 13:37 | 28.80653 | 124.39366 | 38016 ft | 434 kts | 221° |
| 2026-05-06 13:38 | 28.75735 | 124.35359 | 38017 ft | 434 kts | 221° |
| 2026-05-06 13:38 | 28.70814 | 124.31382 | 38011 ft | 436 kts | 221° |
| 2026-05-06 13:39 | 28.65857 | 124.27402 | 38018 ft | 435 kts | 220° |
| 2026-05-06 13:39 | 28.60864 | 124.23408 | 38014 ft | 435 kts | 221° |
| 2026-05-06 13:40 | 28.55927 | 124.19469 | 38017 ft | 435 kts | 220° |
| 2026-05-06 13:40 | 28.50961 | 124.15511 | 38017 ft | 434 kts | 221° |
| 2026-05-06 13:41 | 28.46015 | 124.11571 | 38018 ft | 434 kts | 220° |
| 2026-05-06 13:41 | 28.41092 | 124.07657 | 38016 ft | 433 kts | 221° |
| 2026-05-06 13:42 | 28.36142 | 124.03724 | 38014 ft | 435 kts | 221° |
| 2026-05-06 13:42 | 28.31201 | 123.99801 | 38013 ft | 433 kts | 221° |
| 2026-05-06 13:43 | 28.26275 | 123.95828 | 38013 ft | 434 kts | 221° |
| 2026-05-06 13:43 | 28.21400 | 123.91844 | 38012 ft | 431 kts | 221° |
| 2026-05-06 13:44 | 28.16503 | 123.87849 | 38011 ft | 432 kts | 222° |
| 2026-05-06 13:44 | 28.11646 | 123.83891 | 38009 ft | 433 kts | 221° |
| 2026-05-06 13:45 | 28.06736 | 123.79902 | 38008 ft | 431 kts | 222° |
| 2026-05-06 13:45 | 27.99396 | 123.73953 | 38007 ft | 432 kts | 221° |
| 2026-05-06 13:46 | 27.94520 | 123.70009 | 38005 ft | 431 kts | 221° |
| 2026-05-06 13:46 | 27.89657 | 123.66069 | 38009 ft | 430 kts | 222° |
| 2026-05-06 13:47 | 27.84784 | 123.62100 | 38006 ft | 430 kts | 222° |
| 2026-05-06 13:47 | 27.79931 | 123.58151 | 38003 ft | 429 kts | 222° |
| 2026-05-06 13:48 | 27.75077 | 123.54207 | 38003 ft | 429 kts | 222° |
| 2026-05-06 13:48 | 27.70229 | 123.50274 | 38007 ft | 429 kts | 222° |
| 2026-05-06 13:49 | 27.65384 | 123.46348 | 38003 ft | 428 kts | 222° |
| 2026-05-06 13:49 | 27.60560 | 123.42445 | 38006 ft | 429 kts | 222° |
| 2026-05-06 13:50 | 27.55683 | 123.38501 | 38005 ft | 429 kts | 221° |
| 2026-05-06 13:50 | 27.50859 | 123.34605 | 38006 ft | 429 kts | 221° |
| 2026-05-06 13:51 | 27.45986 | 123.30676 | 38004 ft | 430 kts | 221° |
| 2026-05-06 13:51 | 27.41128 | 123.26764 | 38005 ft | 429 kts | 221° |
| 2026-05-06 13:52 | 27.36277 | 123.22862 | 38008 ft | 429 kts | 221° |
| 2026-05-06 13:52 | 27.31425 | 123.18962 | 38005 ft | 428 kts | 221° |
| 2026-05-06 13:53 | 27.26568 | 123.15061 | 38004 ft | 428 kts | 221° |
| 2026-05-06 13:53 | 27.21712 | 123.11165 | 38008 ft | 429 kts | 221° |
| 2026-05-06 13:54 | 27.16829 | 123.07253 | 38005 ft | 428 kts | 221° |
| 2026-05-06 13:54 | 27.11997 | 123.03388 | 38007 ft | 429 kts | 221° |
| 2026-05-06 13:55 | 27.07118 | 122.99487 | 38007 ft | 429 kts | 221° |
| 2026-05-06 13:55 | 27.02256 | 122.95613 | 38006 ft | 428 kts | 220° |
| 2026-05-06 13:56 | 26.97407 | 122.91758 | 38006 ft | 429 kts | 220° |
| 2026-05-06 13:56 | 26.92516 | 122.87873 | 38007 ft | 430 kts | 220° |
| 2026-05-06 13:57 | 26.87660 | 122.84018 | 38007 ft | 429 kts | 220° |
| 2026-05-06 13:57 | 26.82776 | 122.80147 | 38006 ft | 429 kts | 220° |
| 2026-05-06 13:58 | 26.77912 | 122.76295 | 38003 ft | 428 kts | 220° |
| 2026-05-06 13:58 | 26.73047 | 122.72447 | 38001 ft | 428 kts | 220° |
| 2026-05-06 13:59 | 26.68167 | 122.68588 | 38001 ft | 429 kts | 220° |
| 2026-05-06 13:59 | 26.63273 | 122.64722 | 38000 ft | 429 kts | 221° |
| 2026-05-06 14:00 | 26.58403 | 122.60879 | 37998 ft | 428 kts | 221° |
| 2026-05-06 14:00 | 26.53546 | 122.57052 | 37998 ft | 428 kts | 220° |
| 2026-05-06 14:01 | 26.48688 | 122.53226 | 37997 ft | 428 kts | 220° |
| 2026-05-06 14:01 | 26.43814 | 122.49392 | 37997 ft | 428 kts | 221° |
| 2026-05-06 14:02 | 26.38949 | 122.45573 | 37398 ft | 424 kts | 220° |
| 2026-05-06 14:02 | 26.36527 | 122.43672 | 36461 ft | 429 kts | 220° |
| 2026-05-06 14:02 | 26.34071 | 122.41743 | 35569 ft | 432 kts | 220° |
| 2026-05-06 14:03 | 26.31618 | 122.39818 | 34778 ft | 433 kts | 220° |
| 2026-05-06 14:03 | 26.29185 | 122.37910 | 33982 ft | 434 kts | 220° |
| 2026-05-06 14:03 | 26.26691 | 122.35956 | 33069 ft | 437 kts | 220° |
| 2026-05-06 14:03 | 26.24230 | 122.34028 | 32292 ft | 438 kts | 219° |
| 2026-05-06 14:04 | 26.21700 | 122.32048 | 31509 ft | 439 kts | 219° |
| 2026-05-06 14:04 | 26.19205 | 122.30096 | 30728 ft | 440 kts | 219° |
| 2026-05-06 14:04 | 26.16722 | 122.28157 | 29949 ft | 440 kts | 219° |
| 2026-05-06 14:04 | 26.14240 | 122.26219 | 29377 ft | 435 kts | 219° |
| 2026-05-06 14:05 | 26.11765 | 122.24299 | 28795 ft | 430 kts | 219° |
| 2026-05-06 14:05 | 26.09307 | 122.22409 | 28202 ft | 426 kts | 218° |
| 2026-05-06 14:05 | 26.06872 | 122.20547 | 27601 ft | 423 kts | 218° |
| 2026-05-06 14:05 | 26.04475 | 122.18716 | 27011 ft | 419 kts | 218° |
| 2026-05-06 14:06 | 26.02046 | 122.16863 | 26407 ft | 416 kts | 218° |
| 2026-05-06 14:06 | 25.99675 | 122.15053 | 25816 ft | 412 kts | 218° |
| 2026-05-06 14:06 | 25.97312 | 122.13248 | 25221 ft | 409 kts | 218° |
| 2026-05-06 14:06 | 25.95010 | 122.11491 | 24642 ft | 406 kts | 218° |
| 2026-05-06 14:07 | 25.92669 | 122.09703 | 24053 ft | 403 kts | 217° |
| 2026-05-06 14:07 | 25.90383 | 122.07958 | 23481 ft | 400 kts | 217° |
| 2026-05-06 14:07 | 25.88082 | 122.06201 | 22899 ft | 397 kts | 217° |
| 2026-05-06 14:07 | 25.85838 | 122.04488 | 22323 ft | 395 kts | 217° |
| 2026-05-06 14:08 | 25.83565 | 122.02755 | 21747 ft | 392 kts | 217° |
| 2026-05-06 14:08 | 25.81347 | 122.01064 | 21180 ft | 389 kts | 217° |
| 2026-05-06 14:08 | 25.79122 | 121.99369 | 20606 ft | 387 kts | 217° |
| 2026-05-06 14:08 | 25.76905 | 121.97681 | 20112 ft | 382 kts | 217° |
| 2026-05-06 14:09 | 25.74722 | 121.96021 | 20000 ft | 376 kts | 217° |
| 2026-05-06 14:09 | 25.72563 | 121.94376 | 19986 ft | 380 kts | 217° |
| 2026-05-06 14:09 | 25.70372 | 121.92699 | 19983 ft | 381 kts | 217° |
| 2026-05-06 14:09 | 25.68205 | 121.91030 | 19982 ft | 380 kts | 217° |
| 2026-05-06 14:10 | 25.66086 | 121.89269 | 19980 ft | 379 kts | 223° |
| 2026-05-06 14:10 | 25.64222 | 121.87207 | 19979 ft | 376 kts | 232° |
| 2026-05-06 14:10 | 25.62685 | 121.84872 | 19979 ft | 375 kts | 239° |
| 2026-05-06 14:10 | 25.61344 | 121.82448 | 19979 ft | 374 kts | 242° |
| 2026-05-06 14:11 | 25.60056 | 121.79939 | 19978 ft | 373 kts | 243° |
| 2026-05-06 14:11 | 25.58786 | 121.77411 | 19976 ft | 374 kts | 243° |
| 2026-05-06 14:11 | 25.57521 | 121.74886 | 19974 ft | 374 kts | 243° |
| 2026-05-06 14:11 | 25.56253 | 121.72371 | 19972 ft | 374 kts | 242° |
| 2026-05-06 14:12 | 25.54993 | 121.69885 | 19970 ft | 374 kts | 242° |
| 2026-05-06 14:12 | 25.53709 | 121.67366 | 19971 ft | 374 kts | 242° |
| 2026-05-06 14:12 | 25.52425 | 121.64855 | 19969 ft | 374 kts | 242° |
| 2026-05-06 14:12 | 25.51146 | 121.62362 | 19970 ft | 374 kts | 242° |
| 2026-05-06 14:13 | 25.49848 | 121.59852 | 19968 ft | 374 kts | 241° |
| 2026-05-06 14:13 | 25.48463 | 121.57410 | 19968 ft | 375 kts | 237° |
| 2026-05-06 14:13 | 25.46889 | 121.55111 | 19968 ft | 376 kts | 233° |
| 2026-05-06 14:13 | 25.45221 | 121.52914 | 19968 ft | 376 kts | 231° |
| 2026-05-06 14:14 | 25.43504 | 121.50743 | 19968 ft | 376 kts | 230° |
| 2026-05-06 14:14 | 25.41766 | 121.48570 | 19969 ft | 375 kts | 230° |
| 2026-05-06 14:14 | 25.40044 | 121.46413 | 19970 ft | 375 kts | 230° |
| 2026-05-06 14:14 | 25.38322 | 121.44244 | 19969 ft | 376 kts | 231° |
| 2026-05-06 14:15 | 25.36582 | 121.42042 | 19970 ft | 375 kts | 231° |
| 2026-05-06 14:15 | 25.34874 | 121.39873 | 19971 ft | 375 kts | 231° |
| 2026-05-06 14:15 | 25.33180 | 121.37719 | 19821 ft | 371 kts | 231° |
| 2026-05-06 14:15 | 25.31507 | 121.35590 | 19301 ft | 368 kts | 231° |
| 2026-05-06 14:16 | 25.29822 | 121.33443 | 18698 ft | 366 kts | 231° |
| 2026-05-06 14:16 | 25.28167 | 121.31332 | 18129 ft | 365 kts | 231° |
| 2026-05-06 14:16 | 25.26492 | 121.29196 | 17558 ft | 362 kts | 231° |
| 2026-05-06 14:16 | 25.24865 | 121.27122 | 17015 ft | 360 kts | 231° |
| 2026-05-06 14:17 | 25.23210 | 121.25013 | 16461 ft | 358 kts | 231° |
| 2026-05-06 14:17 | 25.21589 | 121.22948 | 15905 ft | 355 kts | 231° |
| 2026-05-06 14:17 | 25.19970 | 121.20887 | 15342 ft | 353 kts | 230° |
| 2026-05-06 14:17 | 25.18368 | 121.18848 | 14794 ft | 351 kts | 230° |
| 2026-05-06 14:18 | 25.16775 | 121.16824 | 14242 ft | 348 kts | 230° |
| 2026-05-06 14:18 | 25.15201 | 121.14823 | 13697 ft | 346 kts | 230° |
| 2026-05-06 14:18 | 25.13627 | 121.12823 | 13142 ft | 343 kts | 230° |
| 2026-05-06 14:18 | 25.12082 | 121.10863 | 12703 ft | 338 kts | 229° |
| 2026-05-06 14:19 | 25.10560 | 121.08929 | 12381 ft | 329 kts | 229° |
| 2026-05-06 14:19 | 25.09067 | 121.07033 | 12055 ft | 321 kts | 229° |
| 2026-05-06 14:19 | 25.07634 | 121.05212 | 11776 ft | 314 kts | 229° |
| 2026-05-06 14:19 | 25.06210 | 121.03401 | 11415 ft | 308 kts | 229° |
| 2026-05-06 14:20 | 25.04836 | 121.01656 | 11266 ft | 295 kts | 229° |
| 2026-05-06 14:20 | 25.03519 | 120.99985 | 11088 ft | 284 kts | 229° |
| 2026-05-06 14:20 | 25.02230 | 120.98348 | 10687 ft | 282 kts | 229° |
| 2026-05-06 14:20 | 25.00940 | 120.96712 | 10323 ft | 279 kts | 229° |
| 2026-05-06 14:21 | 24.99679 | 120.95113 | 9960 ft | 276 kts | 229° |
| 2026-05-06 14:21 | 24.98414 | 120.93510 | 9585 ft | 273 kts | 230° |
| 2026-05-06 14:21 | 24.97178 | 120.91944 | 9280 ft | 268 kts | 230° |
| 2026-05-06 14:21 | 24.95966 | 120.90411 | 8995 ft | 264 kts | 230° |
| 2026-05-06 14:22 | 24.94805 | 120.88835 | 8753 ft | 268 kts | 233° |
| 2026-05-06 14:22 | 24.93686 | 120.87187 | 8528 ft | 269 kts | 233° |
| 2026-05-06 14:22 | 24.92468 | 120.85621 | 8506 ft | 269 kts | 225° |
| 2026-05-06 14:22 | 24.91006 | 120.84307 | 8431 ft | 273 kts | 213° |
| 2026-05-06 14:23 | 24.89294 | 120.83346 | 7914 ft | 279 kts | 201° |
| 2026-05-06 14:23 | 24.87352 | 120.83002 | 7376 ft | 285 kts | 178° |
| 2026-05-06 14:23 | 24.85452 | 120.83553 | 6994 ft | 285 kts | 156° |
| 2026-05-06 14:23 | 24.83770 | 120.84714 | 6635 ft | 283 kts | 142° |
| 2026-05-06 14:24 | 24.82528 | 120.86361 | 6321 ft | 281 kts | 118° |
| 2026-05-06 14:24 | 24.81966 | 120.88416 | 5969 ft | 283 kts | 97° |
| 2026-05-06 14:24 | 24.81998 | 120.90552 | 5588 ft | 282 kts | 81° |
| 2026-05-06 14:24 | 24.82637 | 120.92586 | 5259 ft | 278 kts | 58° |
| 2026-05-06 14:25 | 24.83813 | 120.94236 | 4943 ft | 276 kts | 48° |
| 2026-05-06 14:25 | 24.85092 | 120.95795 | 4620 ft | 273 kts | 48° |
| 2026-05-06 14:25 | 24.86337 | 120.97330 | 4484 ft | 264 kts | 49° |
| 2026-05-06 14:25 | 24.87534 | 120.98828 | 4412 ft | 255 kts | 49° |
| 2026-05-06 14:26 | 24.88688 | 121.00286 | 4338 ft | 246 kts | 49° |
| 2026-05-06 14:26 | 24.89778 | 121.01666 | 4260 ft | 230 kts | 49° |
| 2026-05-06 14:26 | 24.90790 | 121.02948 | 4193 ft | 212 kts | 49° |
| 2026-05-06 14:26 | 24.91735 | 121.04146 | 4022 ft | 206 kts | 49° |
| 2026-05-06 14:27 | 24.92662 | 121.05335 | 3823 ft | 201 kts | 51° |
| 2026-05-06 14:27 | 24.93531 | 121.06514 | 3710 ft | 198 kts | 51° |
| 2026-05-06 14:27 | 24.94416 | 121.07667 | 3660 ft | 199 kts | 50° |
| 2026-05-06 14:27 | 24.95334 | 121.08825 | 3285 ft | 196 kts | 49° |
| 2026-05-06 14:28 | 24.96214 | 121.09926 | 3016 ft | 183 kts | 50° |
| 2026-05-06 14:28 | 24.97015 | 121.10934 | 2807 ft | 172 kts | 50° |
| 2026-05-06 14:28 | 24.97801 | 121.11925 | 2557 ft | 164 kts | 49° |
| 2026-05-06 14:28 | 24.98526 | 121.12837 | 2343 ft | 156 kts | 50° |
| 2026-05-06 14:29 | 24.99229 | 121.13724 | 2142 ft | 153 kts | 50° |
| 2026-05-06 14:29 | 24.99927 | 121.14603 | 1936 ft | 151 kts | 50° |
| 2026-05-06 14:29 | 25.00619 | 121.15475 | 1738 ft | 151 kts | 50° |
| 2026-05-06 14:29 | 25.01300 | 121.16332 | 1553 ft | 144 kts | 50° |
| 2026-05-06 14:30 | 25.01963 | 121.17169 | 1342 ft | 142 kts | 50° |
| 2026-05-06 14:30 | 25.02617 | 121.17994 | 1163 ft | 142 kts | 50° |
| 2026-05-06 14:30 | 25.03275 | 121.18823 | 971 ft | 142 kts | 49° |
| 2026-05-06 14:30 | 25.03920 | 121.19640 | 770 ft | 142 kts | 50° |
| 2026-05-06 14:31 | 25.04577 | 121.20454 | 582 ft | 142 kts | 49° |
| 2026-05-06 14:31 | 25.05228 | 121.21269 | 403 ft | 139 kts | 50° |
| 2026-05-06 14:31 | 25.05864 | 121.22072 | 233 ft | 137 kts | 49° |
| 2026-05-06 14:31 | 25.06490 | 121.22866 | 120 ft | 131 kts | 50° |
| 2026-05-06 14:32 | 25.06993 | 121.23508 | 116 ft | 83 kts | 50° |
| 2026-05-06 14:32 | 25.07276 | 121.23866 | 116 ft | 50 kts | 50° |
| 2026-05-06 14:32 | 25.07504 | 121.24130 | 116 ft | 40 kts | 38° |
| 2026-05-06 14:32 | 25.07678 | 121.24218 | 116 ft | 18 kts | 19° |
| 2026-05-06 14:33 | 25.07752 | 121.24246 | 116 ft | 5 kts | 19° |
| 2026-05-06 14:33 | 25.07759 | 121.24249 | 116 ft | 0 kts | 19° |
| 2026-05-06 14:34 | 25.07764 | 121.24251 | 116 ft | 1 kts | 19° |
| 2026-05-06 14:34 | 25.07779 | 121.24256 | 116 ft | 2 kts | 18° |
| 2026-05-06 14:34 | 25.07800 | 121.24264 | 116 ft | 3 kts | 18° |
| 2026-05-06 14:34 | 25.07822 | 121.24276 | 116 ft | 3 kts | 31° |
| 2026-05-06 14:35 | 25.07844 | 121.24293 | 116 ft | 3 kts | 34° |
| 2026-05-06 14:35 | 25.07867 | 121.24309 | 116 ft | 4 kts | 34° |
| 2026-05-06 14:35 | 25.07893 | 121.24334 | 116 ft | 5 kts | 47° |
| 2026-05-06 14:35 | 25.07923 | 121.24370 | 116 ft | 7 kts | 49° |
| 2026-05-06 14:36 | 25.07956 | 121.24413 | 116 ft | 6 kts | 49° |
| 2026-05-06 14:36 | 25.07986 | 121.24451 | 116 ft | 6 kts | 44° |
| 2026-05-06 14:36 | 25.08030 | 121.24467 | 116 ft | 7 kts | 348° |
| 2026-05-06 14:36 | 25.08074 | 121.24432 | 116 ft | 8 kts | 319° |
| 2026-05-06 14:37 | 25.08124 | 121.24386 | 116 ft | 10 kts | 317° |
| 2026-05-06 14:37 | 25.08180 | 121.24331 | 116 ft | 11 kts | 320° |
| 2026-05-06 14:37 | 25.08247 | 121.24269 | 116 ft | 13 kts | 318° |
| 2026-05-06 14:37 | 25.08319 | 121.24198 | 116 ft | 14 kts | 319° |
| 2026-05-06 14:38 | 25.08400 | 121.24121 | 116 ft | 16 kts | 319° |
| 2026-05-06 14:38 | 25.08483 | 121.24042 | 115 ft | 15 kts | 320° |
| 2026-05-06 14:38 | 25.08562 | 121.23966 | 115 ft | 14 kts | 319° |
| 2026-05-06 14:38 | 25.08629 | 121.23902 | 116 ft | 11 kts | 319° |
| 2026-05-06 14:39 | 25.08659 | 121.23846 | 115 ft | 6 kts | 271° |
| 2026-05-06 14:39 | 25.08644 | 121.23811 | 115 ft | 4 kts | 231° |
| 2026-05-06 14:39 | 25.08625 | 121.23788 | 115 ft | 3 kts | 229° |
| 2026-05-06 14:39 | 25.08608 | 121.23765 | 115 ft | 3 kts | 230° |
| 2026-05-06 14:40 | 25.08588 | 121.23740 | 115 ft | 4 kts | 229° |
| 2026-05-06 14:40 | 25.08567 | 121.23712 | 115 ft | 5 kts | 229° |
| 2026-05-06 14:40 | 25.08541 | 121.23679 | 115 ft | 6 kts | 230° |
| 2026-05-06 14:40 | 25.08507 | 121.23636 | 115 ft | 8 kts | 229° |
| 2026-05-06 14:41 | 25.08467 | 121.23585 | 115 ft | 8 kts | 228° |
| 2026-05-06 14:41 | 25.08434 | 121.23543 | 115 ft | 5 kts | 229° |
| 2026-05-06 14:41 | 25.08412 | 121.23516 | 115 ft | 3 kts | 229° |
| 2026-05-06 14:41 | 25.08398 | 121.23497 | 115 ft | 2 kts | 229° |
| 2026-05-06 14:42 | 25.08381 | 121.23475 | 115 ft | 6 kts | 230° |
| 2026-05-06 14:42 | 25.08334 | 121.23449 | 115 ft | 9 kts | 158° |
| 2026-05-06 14:42 | 25.08278 | 121.23498 | 115 ft | 6 kts | 139° |
| 2026-05-06 14:42 | 25.08259 | 121.23516 | 115 ft | 1 kts | 138° |
| 2026-05-06 14:43 | 25.08254 | 121.23521 | 115 ft | 0 kts | 138° |
| 2026-05-06 14:43 | 25.08248 | 121.23528 | 115 ft | 2 kts | 139° |
| 2026-05-06 14:43 | 25.08243 | 121.23533 | 115 ft | 0 kts | 139° |